PWSweather.com
Personal Weather Stations
Station Observations
KNYLONGL2
Adirondack Acres, Long Lake, NY 12847

Adirondack AcresLong Lake, NY 12847

Lat: 43.979118, Lon: -74.43445500000001

Elevation: 1650

Station Type: Davis Vantage Pro2

http://www.adirondackacres.com/weather

Latest ConditionsUpdated 11:35:00 AM EDT Saturday, Aug 24, 2019
Currently Today's Max Today's Min Today's Average
Temperature 60.8°F16.0°C 60.8°F16.0°C 41.6°F5.3°C 46.6°F8.1°C
Dew Point 51.3°F10.7°C 51.9°F11.1°C 40.5°F4.7°C 44.6°F7.0°C
Winds 1.0 mph ENE1.6 kmh ENE 3.0 mph -4.8 kmh - - 0.2 mph 0.3 kmh
Wind Gusts 5.0 mph8.0 kmh 9.0 mph14.5 kmh - -
Humidity 71% 98% 71% 93%
Pressure 30.19 in1022.4 mb 30.20 in1022.7 mb 30.08 in1018.6 mb -
Hour Temp Dew Point Humidity Winds Wind Gusts Pressure Precip Precip Rate Daily Precip Total
11:35 AM 60.8°F16.0°C 51.3°F10.7°C 71% 1.0 mph ENE1.6 kmh ENE 5.0 mph8.0 kmh 30.19 in1022.4 mb 0.00 in0.0 mm 0.00 in0.0 mm 0.00 in0.0 mm
11:30 AM 60.4°F15.8°C 51.3°F10.7°C 72% Calm Calm 3.0 mph4.8 kmh 30.19 in1022.4 mb 0.00 in0.0 mm 0.00 in0.0 mm 0.00 in0.0 mm
11:25 AM 60.1°F15.6°C 51.4°F10.8°C 73% 1.0 mph NE1.6 kmh NE 5.0 mph8.0 kmh 30.19 in1022.4 mb 0.00 in0.0 mm 0.00 in0.0 mm 0.00 in0.0 mm
11:20 AM 59.8°F15.4°C 50.8°F10.4°C 72% 1.0 mph NE1.6 kmh NE 5.0 mph8.0 kmh 30.20 in1022.7 mb 0.00 in0.0 mm 0.00 in0.0 mm 0.00 in0.0 mm
11:15 AM 59.7°F15.4°C 51.4°F10.8°C 74% 1.0 mph NNE1.6 kmh NNE 5.0 mph8.0 kmh 30.20 in1022.7 mb 0.00 in0.0 mm 0.00 in0.0 mm 0.00 in0.0 mm
11:10 AM 59.5°F15.3°C 51.2°F10.7°C 74% 1.0 mph NE1.6 kmh NE 5.0 mph8.0 kmh 30.20 in1022.7 mb 0.00 in0.0 mm 0.00 in0.0 mm 0.00 in0.0 mm
11:05 AM 59.4°F15.2°C 51.1°F10.6°C 74% 1.0 mph NE1.6 kmh NE 4.0 mph6.4 kmh 30.20 in1022.7 mb 0.00 in0.0 mm 0.00 in0.0 mm 0.00 in0.0 mm
11:00 AM 59.2°F15.1°C 51.3°F10.7°C 75% 2.0 mph NE3.2 kmh NE 5.0 mph8.0 kmh 30.19 in1022.4 mb 0.00 in0.0 mm 0.00 in0.0 mm 0.00 in0.0 mm
10:55 AM 59.3°F15.2°C 50.6°F10.3°C 73% 2.0 mph NE3.2 kmh NE 5.0 mph8.0 kmh 30.19 in1022.4 mb 0.00 in0.0 mm 0.00 in0.0 mm 0.00 in0.0 mm
10:50 AM 59.1°F15.1°C 51.5°F10.8°C 76% 3.0 mph NE4.8 kmh NE 8.0 mph12.9 kmh 30.19 in1022.4 mb 0.00 in0.0 mm 0.00 in0.0 mm 0.00 in0.0 mm
10:45 AM 58.8°F14.9°C 51.6°F10.9°C 77% 3.0 mph NE4.8 kmh NE 9.0 mph14.5 kmh 30.19 in1022.4 mb 0.00 in0.0 mm 0.00 in0.0 mm 0.00 in0.0 mm
10:40 AM 58.4°F14.7°C 51.6°F10.9°C 78% 2.0 mph NE3.2 kmh NE 9.0 mph14.5 kmh 30.19 in1022.4 mb 0.00 in0.0 mm 0.00 in0.0 mm 0.00 in0.0 mm
10:35 AM 57.8°F14.3°C 51.3°F10.7°C 79% 1.0 mph ENE1.6 kmh ENE 7.0 mph11.3 kmh 30.19 in1022.4 mb 0.00 in0.0 mm 0.00 in0.0 mm 0.00 in0.0 mm
10:30 AM 57.4°F14.1°C 51.9°F11.1°C 82% Calm Calm 7.0 mph11.3 kmh 30.19 in1022.4 mb 0.00 in0.0 mm 0.00 in0.0 mm 0.00 in0.0 mm
10:25 AM 56.9°F13.8°C 51.5°F10.8°C 82% 1.0 mph E1.6 kmh E 5.0 mph8.0 kmh 30.19 in1022.4 mb 0.00 in0.0 mm 0.00 in0.0 mm 0.00 in0.0 mm
10:20 AM 56.5°F13.6°C 51.4°F10.8°C 83% 1.0 mph NE1.6 kmh NE 5.0 mph8.0 kmh 30.19 in1022.4 mb 0.00 in0.0 mm 0.00 in0.0 mm 0.00 in0.0 mm
10:15 AM 56.0°F13.3°C 51.2°F10.7°C 84% Calm Calm 3.0 mph4.8 kmh 30.20 in1022.7 mb 0.00 in0.0 mm 0.00 in0.0 mm 0.00 in0.0 mm
10:10 AM 55.3°F12.9°C 51.2°F10.7°C 86% Calm Calm 1.0 mph1.6 kmh 30.20 in1022.7 mb 0.00 in0.0 mm 0.00 in0.0 mm 0.00 in0.0 mm
10:05 AM 54.7°F12.6°C 51.5°F10.8°C 89% Calm Calm 1.0 mph1.6 kmh 30.20 in1022.7 mb 0.00 in0.0 mm 0.00 in0.0 mm 0.00 in0.0 mm
10:00 AM 54.3°F12.4°C 50.8°F10.4°C 88% Calm Calm 1.0 mph1.6 kmh 30.20 in1022.7 mb 0.00 in0.0 mm 0.00 in0.0 mm 0.00 in0.0 mm
09:55 AM 53.9°F12.2°C 51.0°F10.6°C 90% Calm Calm 1.0 mph1.6 kmh 30.20 in1022.7 mb 0.00 in0.0 mm 0.00 in0.0 mm 0.00 in0.0 mm
09:50 AM 53.5°F11.9°C 50.6°F10.3°C 90% Calm Calm -- 30.20 in1022.7 mb 0.00 in0.0 mm 0.00 in0.0 mm 0.00 in0.0 mm
09:45 AM 53.2°F11.8°C 50.6°F10.3°C 91% Calm Calm -- 30.20 in1022.7 mb 0.00 in0.0 mm 0.00 in0.0 mm 0.00 in0.0 mm
09:40 AM 53.0°F11.7°C 50.7°F10.4°C 92% Calm Calm 2.0 mph3.2 kmh 30.20 in1022.7 mb 0.00 in0.0 mm 0.00 in0.0 mm 0.00 in0.0 mm
09:35 AM 52.8°F11.6°C 50.8°F10.4°C 93% Calm Calm 2.0 mph3.2 kmh 30.20 in1022.7 mb 0.00 in0.0 mm 0.00 in0.0 mm 0.00 in0.0 mm
09:30 AM 52.6°F11.4°C 50.9°F10.5°C 94% Calm Calm 2.0 mph3.2 kmh 30.20 in1022.7 mb 0.00 in0.0 mm 0.00 in0.0 mm 0.00 in0.0 mm
09:25 AM 52.4°F11.3°C 51.0°F10.6°C 95% 1.0 mph 1.6 kmh -- 30.20 in1022.7 mb 0.00 in0.0 mm 0.00 in0.0 mm 0.00 in0.0 mm
08:30 AM 49.1°F9.5°C 48.6°F9.2°C 98% Calm Calm 1.0 mph1.6 kmh 30.20 in1022.7 mb 0.00 in0.0 mm 0.00 in0.0 mm 0.00 in0.0 mm
08:25 AM 48.5°F9.2°C 48.0°F8.9°C 98% Calm Calm -- 30.19 in1022.4 mb 0.00 in0.0 mm 0.00 in0.0 mm 0.00 in0.0 mm
08:20 AM 48.0°F8.9°C 47.5°F8.6°C 98% Calm Calm -- 30.19 in1022.4 mb 0.00 in0.0 mm 0.00 in0.0 mm 0.00 in0.0 mm
08:15 AM 47.8°F8.8°C 47.3°F8.5°C 98% Calm Calm -- 30.19 in1022.4 mb 0.00 in0.0 mm 0.00 in0.0 mm 0.00 in0.0 mm
08:10 AM 47.6°F8.7°C 47.1°F8.4°C 98% Calm Calm -- 30.19 in1022.4 mb 0.00 in0.0 mm 0.00 in0.0 mm 0.00 in0.0 mm
08:05 AM 47.5°F8.6°C 47.0°F8.3°C 98% Calm Calm -- 30.19 in1022.4 mb 0.00 in0.0 mm 0.00 in0.0 mm 0.00 in0.0 mm
08:00 AM 47.3°F8.5°C 46.8°F8.2°C 98% Calm Calm -- 30.19 in1022.4 mb 0.00 in0.0 mm 0.00 in0.0 mm 0.00 in0.0 mm
07:55 AM 47.1°F8.4°C 46.6°F8.1°C 98% Calm Calm -- 30.19 in1022.4 mb 0.00 in0.0 mm 0.00 in0.0 mm 0.00 in0.0 mm
07:50 AM 46.8°F8.2°C 46.3°F7.9°C 98% Calm Calm -- 30.19 in1022.4 mb 0.00 in0.0 mm 0.00 in0.0 mm 0.00 in0.0 mm
07:45 AM 46.6°F8.1°C 46.1°F7.8°C 98% Calm Calm 1.0 mph1.6 kmh 30.19 in1022.4 mb 0.00 in0.0 mm 0.00 in0.0 mm 0.00 in0.0 mm
07:40 AM 46.5°F8.1°C 46.0°F7.8°C 98% Calm Calm 1.0 mph1.6 kmh 30.18 in1022.0 mb 0.00 in0.0 mm 0.00 in0.0 mm 0.00 in0.0 mm
07:35 AM 46.4°F8.0°C 45.9°F7.7°C 98% Calm Calm -- 30.18 in1022.0 mb 0.00 in0.0 mm 0.00 in0.0 mm 0.00 in0.0 mm
07:30 AM 46.1°F7.8°C 45.3°F7.4°C 97% Calm Calm -- 30.18 in1022.0 mb 0.00 in0.0 mm 0.00 in0.0 mm 0.00 in0.0 mm
07:25 AM 45.7°F7.6°C 45.2°F7.3°C 98% Calm Calm -- 30.18 in1022.0 mb 0.00 in0.0 mm 0.00 in0.0 mm 0.00 in0.0 mm
07:20 AM 45.4°F7.4°C 44.6°F7.0°C 97% Calm Calm -- 30.18 in1022.0 mb 0.00 in0.0 mm 0.00 in0.0 mm 0.00 in0.0 mm
07:15 AM 45.2°F7.3°C 44.7°F7.1°C 98% Calm Calm -- 30.18 in1022.0 mb 0.00 in0.0 mm 0.00 in0.0 mm 0.00 in0.0 mm
07:10 AM 45.0°F7.2°C 44.2°F6.8°C 97% Calm Calm -- 30.18 in1022.0 mb 0.00 in0.0 mm 0.00 in0.0 mm 0.00 in0.0 mm
07:05 AM 44.9°F7.2°C 44.1°F6.7°C 97% Calm Calm -- 30.18 in1022.0 mb 0.00 in0.0 mm 0.00 in0.0 mm 0.00 in0.0 mm
07:00 AM 44.7°F7.1°C 43.9°F6.6°C 97% Calm Calm -- 30.17 in1021.7 mb 0.00 in0.0 mm 0.00 in0.0 mm 0.00 in0.0 mm
06:55 AM 44.6°F7.0°C 43.8°F6.6°C 97% Calm Calm -- 30.17 in1021.7 mb 0.00 in0.0 mm 0.00 in0.0 mm 0.00 in0.0 mm
06:50 AM 44.5°F6.9°C 43.7°F6.5°C 97% Calm Calm -- 30.17 in1021.7 mb 0.00 in0.0 mm 0.00 in0.0 mm 0.00 in0.0 mm
06:45 AM 44.3°F6.8°C 43.5°F6.4°C 97% Calm Calm -- 30.17 in1021.7 mb 0.00 in0.0 mm 0.00 in0.0 mm 0.00 in0.0 mm
06:40 AM 44.3°F6.8°C 43.5°F6.4°C 97% Calm Calm -- 30.16 in1021.3 mb 0.00 in0.0 mm 0.00 in0.0 mm 0.00 in0.0 mm
06:35 AM 44.2°F6.8°C 43.4°F6.3°C 97% Calm Calm -- 30.16 in1021.3 mb 0.00 in0.0 mm 0.00 in0.0 mm 0.00 in0.0 mm
06:30 AM 44.0°F6.7°C 43.2°F6.2°C 97% Calm Calm -- 30.16 in1021.3 mb 0.00 in0.0 mm 0.00 in0.0 mm 0.00 in0.0 mm
06:25 AM 43.9°F6.6°C 43.1°F6.2°C 97% Calm Calm -- 30.16 in1021.3 mb 0.00 in0.0 mm 0.00 in0.0 mm 0.00 in0.0 mm
06:20 AM 43.8°F6.6°C 43.0°F6.1°C 97% Calm Calm -- 30.15 in1021.0 mb 0.00 in0.0 mm 0.00 in0.0 mm 0.00 in0.0 mm
06:15 AM 43.6°F6.4°C 42.8°F6.0°C 97% Calm Calm -- 30.15 in1021.0 mb 0.00 in0.0 mm 0.00 in0.0 mm 0.00 in0.0 mm
06:10 AM 43.5°F6.4°C 42.7°F5.9°C 97% Calm Calm -- 30.15 in1021.0 mb 0.00 in0.0 mm 0.00 in0.0 mm 0.00 in0.0 mm
06:05 AM 43.4°F6.3°C 42.6°F5.9°C 97% Calm Calm -- 30.15 in1021.0 mb 0.00 in0.0 mm 0.00 in0.0 mm 0.00 in0.0 mm
06:00 AM 43.3°F6.3°C 42.5°F5.8°C 97% Calm Calm -- 30.14 in1020.7 mb 0.00 in0.0 mm 0.00 in0.0 mm 0.00 in0.0 mm
05:55 AM 43.2°F6.2°C 42.4°F5.8°C 97% Calm Calm -- 30.14 in1020.7 mb 0.00 in0.0 mm 0.00 in0.0 mm 0.00 in0.0 mm
05:50 AM 43.0°F6.1°C 42.2°F5.7°C 97% Calm Calm -- 30.14 in1020.7 mb 0.00 in0.0 mm 0.00 in0.0 mm 0.00 in0.0 mm
05:45 AM 42.8°F6.0°C 42.0°F5.6°C 97% Calm Calm -- 30.14 in1020.7 mb 0.00 in0.0 mm 0.00 in0.0 mm 0.00 in0.0 mm
05:40 AM 42.7°F5.9°C 41.9°F5.5°C 97% Calm Calm -- 30.14 in1020.7 mb 0.00 in0.0 mm 0.00 in0.0 mm 0.00 in0.0 mm
05:35 AM 42.5°F5.8°C 41.7°F5.4°C 97% Calm Calm -- 30.14 in1020.7 mb 0.00 in0.0 mm 0.00 in0.0 mm 0.00 in0.0 mm
05:30 AM 42.4°F5.8°C 41.6°F5.3°C 97% Calm Calm -- 30.13 in1020.3 mb 0.00 in0.0 mm 0.00 in0.0 mm 0.00 in0.0 mm
05:25 AM 42.3°F5.7°C 41.5°F5.3°C 97% Calm Calm -- 30.14 in1020.7 mb 0.00 in0.0 mm 0.00 in0.0 mm 0.00 in0.0 mm
05:20 AM 42.2°F5.7°C 41.1°F5.1°C 96% Calm Calm -- 30.13 in1020.3 mb 0.00 in0.0 mm 0.00 in0.0 mm 0.00 in0.0 mm
05:15 AM 42.3°F5.7°C 41.2°F5.1°C 96% Calm Calm -- 30.14 in1020.7 mb 0.00 in0.0 mm 0.00 in0.0 mm 0.00 in0.0 mm
05:10 AM 42.4°F5.8°C 41.6°F5.3°C 97% Calm Calm -- 30.13 in1020.3 mb 0.00 in0.0 mm 0.00 in0.0 mm 0.00 in0.0 mm
05:05 AM 42.5°F5.8°C 41.7°F5.4°C 97% Calm Calm -- 30.14 in1020.7 mb 0.00 in0.0 mm 0.00 in0.0 mm 0.00 in0.0 mm
05:00 AM 42.4°F5.8°C 41.6°F5.3°C 97% Calm Calm -- 30.14 in1020.7 mb 0.00 in0.0 mm 0.00 in0.0 mm 0.00 in0.0 mm
04:55 AM 42.3°F5.7°C 41.5°F5.3°C 97% Calm Calm -- 30.13 in1020.3 mb 0.00 in0.0 mm 0.00 in0.0 mm 0.00 in0.0 mm
04:50 AM 42.1°F5.6°C 41.0°F5.0°C 96% Calm Calm -- 30.13 in1020.3 mb 0.00 in0.0 mm 0.00 in0.0 mm 0.00 in0.0 mm
04:45 AM 42.0°F5.6°C 41.2°F5.1°C 97% Calm Calm -- 30.13 in1020.3 mb 0.00 in0.0 mm 0.00 in0.0 mm 0.00 in0.0 mm
04:40 AM 41.8°F5.4°C 40.7°F4.8°C 96% Calm Calm -- 30.13 in1020.3 mb 0.00 in0.0 mm 0.00 in0.0 mm 0.00 in0.0 mm
04:35 AM 41.7°F5.4°C 40.6°F4.8°C 96% Calm Calm -- 30.13 in1020.3 mb 0.00 in0.0 mm 0.00 in0.0 mm 0.00 in0.0 mm
04:30 AM 41.6°F5.3°C 40.5°F4.7°C 96% Calm Calm -- 30.13 in1020.3 mb 0.00 in0.0 mm 0.00 in0.0 mm 0.00 in0.0 mm
04:25 AM 41.6°F5.3°C 40.5°F4.7°C 96% Calm Calm -- 30.13 in1020.3 mb 0.00 in0.0 mm 0.00 in0.0 mm 0.00 in0.0 mm
04:20 AM 41.6°F5.3°C 40.5°F4.7°C 96% Calm Calm -- 30.12 in1020.0 mb 0.00 in0.0 mm 0.00 in0.0 mm 0.00 in0.0 mm
04:15 AM 41.7°F5.4°C 40.6°F4.8°C 96% Calm Calm -- 30.12 in1020.0 mb 0.00 in0.0 mm 0.00 in0.0 mm 0.00 in0.0 mm
04:10 AM 41.7°F5.4°C 40.6°F4.8°C 96% Calm Calm -- 30.12 in1020.0 mb 0.00 in0.0 mm 0.00 in0.0 mm 0.00 in0.0 mm
04:05 AM 41.8°F5.4°C 40.7°F4.8°C 96% Calm Calm -- 30.12 in1020.0 mb 0.00 in0.0 mm 0.00 in0.0 mm 0.00 in0.0 mm
04:00 AM 41.8°F5.4°C 40.7°F4.8°C 96% Calm Calm -- 30.12 in1020.0 mb 0.00 in0.0 mm 0.00 in0.0 mm 0.00 in0.0 mm
03:55 AM 41.8°F5.4°C 40.7°F4.8°C 96% Calm Calm -- 30.12 in1020.0 mb 0.00 in0.0 mm 0.00 in0.0 mm 0.00 in0.0 mm
03:50 AM 41.8°F5.4°C 40.7°F4.8°C 96% Calm Calm -- 30.12 in1020.0 mb 0.00 in0.0 mm 0.00 in0.0 mm 0.00 in0.0 mm
03:45 AM 41.9°F5.5°C 40.8°F4.9°C 96% Calm Calm -- 30.12 in1020.0 mb 0.00 in0.0 mm 0.00 in0.0 mm 0.00 in0.0 mm
03:40 AM 42.0°F5.6°C 40.9°F4.9°C 96% Calm Calm -- 30.12 in1020.0 mb 0.00 in0.0 mm 0.00 in0.0 mm 0.00 in0.0 mm
03:35 AM 42.0°F5.6°C 40.9°F4.9°C 96% Calm Calm -- 30.12 in1020.0 mb 0.00 in0.0 mm 0.00 in0.0 mm 0.00 in0.0 mm
03:30 AM 42.1°F5.6°C 41.0°F5.0°C 96% Calm Calm -- 30.12 in1020.0 mb 0.00 in0.0 mm 0.00 in0.0 mm 0.00 in0.0 mm
03:25 AM 42.1°F5.6°C 41.0°F5.0°C 96% Calm Calm -- 30.12 in1020.0 mb 0.00 in0.0 mm 0.00 in0.0 mm 0.00 in0.0 mm
03:20 AM 42.2°F5.7°C 41.1°F5.1°C 96% Calm Calm -- 30.12 in1020.0 mb 0.00 in0.0 mm 0.00 in0.0 mm 0.00 in0.0 mm
03:15 AM 42.3°F5.7°C 41.2°F5.1°C 96% Calm Calm -- 30.12 in1020.0 mb 0.00 in0.0 mm 0.00 in0.0 mm 0.00 in0.0 mm
03:10 AM 42.4°F5.8°C 41.3°F5.2°C 96% Calm Calm -- 30.12 in1020.0 mb 0.00 in0.0 mm 0.00 in0.0 mm 0.00 in0.0 mm
03:05 AM 42.4°F5.8°C 41.3°F5.2°C 96% Calm Calm -- 30.12 in1020.0 mb 0.00 in0.0 mm 0.00 in0.0 mm 0.00 in0.0 mm
03:00 AM 42.5°F5.8°C 41.4°F5.2°C 96% Calm Calm -- 30.11 in1019.6 mb 0.00 in0.0 mm 0.00 in0.0 mm 0.00 in0.0 mm
02:55 AM 42.6°F5.9°C 41.5°F5.3°C 96% Calm Calm -- 30.11 in1019.6 mb 0.00 in0.0 mm 0.00 in0.0 mm 0.00 in0.0 mm
02:50 AM 42.7°F5.9°C 41.6°F5.3°C 96% Calm Calm -- 30.11 in1019.6 mb 0.00 in0.0 mm 0.00 in0.0 mm 0.00 in0.0 mm
02:45 AM 42.7°F5.9°C 41.6°F5.3°C 96% Calm Calm -- 30.11 in1019.6 mb 0.00 in0.0 mm 0.00 in0.0 mm 0.00 in0.0 mm
02:40 AM 42.8°F6.0°C 41.7°F5.4°C 96% Calm Calm -- 30.11 in1019.6 mb 0.00 in0.0 mm 0.00 in0.0 mm 0.00 in0.0 mm
02:35 AM 42.9°F6.1°C 41.8°F5.4°C 96% Calm Calm -- 30.11 in1019.6 mb 0.00 in0.0 mm 0.00 in0.0 mm 0.00 in0.0 mm
02:30 AM 43.0°F6.1°C 41.9°F5.5°C 96% Calm Calm -- 30.11 in1019.6 mb 0.00 in0.0 mm 0.00 in0.0 mm 0.00 in0.0 mm
02:25 AM 43.1°F6.2°C 42.0°F5.6°C 96% Calm Calm -- 30.11 in1019.6 mb 0.00 in0.0 mm 0.00 in0.0 mm 0.00 in0.0 mm
02:20 AM 43.1°F6.2°C 42.0°F5.6°C 96% Calm Calm -- 30.11 in1019.6 mb 0.00 in0.0 mm 0.00 in0.0 mm 0.00 in0.0 mm
02:15 AM 43.2°F6.2°C 42.1°F5.6°C 96% Calm Calm -- 30.11 in1019.6 mb 0.00 in0.0 mm 0.00 in0.0 mm 0.00 in0.0 mm
02:10 AM 43.3°F6.3°C 42.0°F5.6°C 95% Calm Calm -- 30.10 in1019.3 mb 0.00 in0.0 mm 0.00 in0.0 mm 0.00 in0.0 mm
02:05 AM 43.3°F6.3°C 42.0°F5.6°C 95% Calm Calm -- 30.10 in1019.3 mb 0.00 in0.0 mm 0.00 in0.0 mm 0.00 in0.0 mm
02:00 AM 43.5°F6.4°C 42.4°F5.8°C 96% Calm Calm -- 30.10 in1019.3 mb 0.00 in0.0 mm 0.00 in0.0 mm 0.00 in0.0 mm
01:55 AM 43.6°F6.4°C 42.5°F5.8°C 96% Calm Calm -- 30.10 in1019.3 mb 0.00 in0.0 mm 0.00 in0.0 mm 0.00 in0.0 mm
01:50 AM 43.6°F6.4°C 42.3°F5.7°C 95% Calm Calm -- 30.09 in1019.0 mb 0.00 in0.0 mm 0.00 in0.0 mm 0.00 in0.0 mm
01:45 AM 43.7°F6.5°C 42.4°F5.8°C 95% Calm Calm -- 30.10 in1019.3 mb 0.00 in0.0 mm 0.00 in0.0 mm 0.00 in0.0 mm
01:40 AM 43.8°F6.6°C 42.5°F5.8°C 95% Calm Calm -- 30.10 in1019.3 mb 0.00 in0.0 mm 0.00 in0.0 mm 0.00 in0.0 mm
01:35 AM 43.9°F6.6°C 42.6°F5.9°C 95% Calm Calm -- 30.10 in1019.3 mb 0.00 in0.0 mm 0.00 in0.0 mm 0.00 in0.0 mm
01:30 AM 44.0°F6.7°C 42.7°F5.9°C 95% Calm Calm -- 30.10 in1019.3 mb 0.00 in0.0 mm 0.00 in0.0 mm 0.00 in0.0 mm
01:25 AM 44.1°F6.7°C 42.8°F6.0°C 95% Calm Calm -- 30.10 in1019.3 mb 0.00 in0.0 mm 0.00 in0.0 mm 0.00 in0.0 mm
01:20 AM 44.2°F6.8°C 42.9°F6.1°C 95% Calm Calm -- 30.10 in1019.3 mb 0.00 in0.0 mm 0.00 in0.0 mm 0.00 in0.0 mm
01:15 AM 44.3°F6.8°C 43.0°F6.1°C 95% Calm Calm -- 30.10 in1019.3 mb 0.00 in0.0 mm 0.00 in0.0 mm 0.00 in0.0 mm
01:10 AM 44.4°F6.9°C 43.1°F6.2°C 95% Calm Calm -- 30.10 in1019.3 mb 0.00 in0.0 mm 0.00 in0.0 mm 0.00 in0.0 mm
01:05 AM 44.5°F6.9°C 43.2°F6.2°C 95% Calm Calm -- 30.09 in1019.0 mb 0.00 in0.0 mm 0.00 in0.0 mm 0.00 in0.0 mm
01:00 AM 44.6°F7.0°C 43.3°F6.3°C 95% Calm Calm -- 30.09 in1019.0 mb 0.00 in0.0 mm 0.00 in0.0 mm 0.00 in0.0 mm
12:55 AM 44.7°F7.1°C 43.4°F6.3°C 95% Calm Calm -- 30.09 in1019.0 mb 0.00 in0.0 mm 0.00 in0.0 mm 0.00 in0.0 mm
12:50 AM 44.8°F7.1°C 43.5°F6.4°C 95% Calm Calm -- 30.09 in1019.0 mb 0.00 in0.0 mm 0.00 in0.0 mm 0.00 in0.0 mm
12:45 AM 44.9°F7.2°C 43.6°F6.4°C 95% Calm Calm -- 30.09 in1019.0 mb 0.00 in0.0 mm 0.00 in0.0 mm 0.00 in0.0 mm
12:40 AM 45.0°F7.2°C 43.7°F6.5°C 95% Calm Calm -- 30.09 in1019.0 mb 0.00 in0.0 mm 0.00 in0.0 mm 0.00 in0.0 mm
12:35 AM 45.1°F7.3°C 43.8°F6.6°C 95% Calm Calm -- 30.09 in1019.0 mb 0.00 in0.0 mm 0.00 in0.0 mm 0.00 in0.0 mm
12:30 AM 45.2°F7.3°C 43.9°F6.6°C 95% Calm Calm -- 30.09 in1019.0 mb 0.00 in0.0 mm 0.00 in0.0 mm 0.00 in0.0 mm
12:25 AM 45.2°F7.3°C 43.9°F6.6°C 95% Calm Calm -- 30.09 in1019.0 mb 0.00 in0.0 mm 0.00 in0.0 mm 0.00 in0.0 mm
12:20 AM 45.4°F7.4°C 44.1°F6.7°C 95% Calm Calm -- 30.09 in1019.0 mb 0.00 in0.0 mm 0.00 in0.0 mm 0.00 in0.0 mm
12:15 AM 45.4°F7.4°C 44.1°F6.7°C 95% Calm Calm -- 30.09 in1019.0 mb 0.00 in0.0 mm 0.00 in0.0 mm 0.00 in0.0 mm
12:10 AM 45.5°F7.5°C 44.2°F6.8°C 95% Calm Calm -- 30.09 in1019.0 mb 0.00 in0.0 mm 0.00 in0.0 mm 0.00 in0.0 mm
12:05 AM 45.6°F7.6°C 44.3°F6.8°C 95% Calm Calm -- 30.08 in1018.6 mb 0.00 in0.0 mm 0.00 in0.0 mm 0.00 in0.0 mm
12:00 AM 45.8°F7.7°C 44.4°F6.9°C 95% Calm Calm -- 30.08 in1018.6 mb 0.00 in0.0 mm 0.00 in0.0 mm 0.00 in0.0 mm